Latest Weather Observations for Holsworthy

IDN60801

Issued at 3:02 pm EST Tuesday 30 June 2015 (issued every 30 minutes, with the page automatically refreshed every 10 minutes)

About weather observations | Map of weather stations | Latest weather observations for NSW | Other Formats
Station Details ID: 066161 Name: HOLSWORTHY AERODROME AWS Lat: -33.99 Lon: 150.95 Height: 68.16 m
Data from the previous 72 hours. | See also: Recent months at Holsworthy
Date/Time
EST
Temp
°C
App
Temp
°C
Dew
Point
Rel
Hum
%
Delta-T
°C
Wind Press
QNH
hPa
Press
MSL
hPa
Rain
since 9 am
mm
Dir
 
Spd
km/h
Gust
km/h
Spd
kts
Gust
kts
30/03:00pm 17.7 15.6 8.3 54 4.8 N 9 13 5 7 1024.8 1024.9 0.0
30/02:30pm 17.8 15.3 8.4 54 4.8 NNW 11 15 6 8 1025.0 1025.1 0.0
30/02:00pm 17.6 15.6 8.5 55 4.7 NNW 9 13 5 7 1025.2 1025.3 0.0
30/01:30pm 16.8 14.8 8.8 59 4.1 NNW 9 15 5 8 1025.5 1025.6 0.0
30/01:00pm 16.1 14.8 9.1 63 3.6 W 6 9 3 5 1026.2 1026.3 0.0
30/12:30pm 15.3 13.9 8.8 65 3.3 NW 6 11 3 6 1026.7 1026.8 0.0
30/12:00pm 13.9 12.7 9.7 76 2.2 W 6 9 3 5 1027.3 1027.4 0.0
30/11:30am 12.8 11.1 10.0 83 1.4 WNW 9 13 5 7 1027.9 1028.0 0.0
30/11:00am 11.8 10.6 10.2 90 0.8 W 7 9 4 5 1028.3 1028.4 0.0
30/10:30am 10.8 9.5 10.0 95 0.4 WNW 7 11 4 6 1028.8 1028.9 0.0
30/10:00am 9.7 8.4 9.2 97 0.2 WSW 6 7 3 4 1028.9 1029.0 0.0
30/09:30am 8.8 6.7 8.4 97 0.2 W 9 13 5 7 1029.4 1029.5 0.0
30/09:00am 8.1 6.3 7.8 98 0.1 W 7 9 4 5 1029.3 1029.4 0.0
30/08:30am 6.9 4.8 6.6 98 0.1 W 7 9 4 5 1029.2 1029.3 0.0
30/08:00am 6.3 3.7 6.0 98 0.1 WSW 9 11 5 6 1029.0 1029.1 0.0
30/07:30am 5.3 3.0 5.0 98 0.1 WSW 6 13 3 7 1028.9 1029.0 0.0
30/07:00am 4.9 2.4 4.5 97 0.2 WSW 7 9 4 5 1028.7 1028.8 0.0
30/06:30am 4.1 1.4 3.5 96 0.2 WSW 7 9 4 5 1028.6 1028.7 0.0
30/06:00am 4.8 2.4 4.4 97 0.2 WSW 6 9 3 5 1028.4 1028.5 0.0
30/05:30am 5.2 2.9 4.8 97 0.2 SSW 6 7 3 4 1028.3 1028.4 0.0
30/05:00am 5.3 2.4 4.9 97 0.2 WSW 9 13 5 7 1028.4 1028.5 0.0
30/04:30am 4.4 1.9 3.8 96 0.3 WSW 6 9 3 5 1028.2 1028.3 0.0
30/04:00am 5.8 4.7 5.2 96 0.3 CALM 0 0 0 0 1028.0 1028.1 0.0
30/03:30am 5.7 4.6 5.1 96 0.3 CALM 0 0 0 0 1028.4 1028.5 0.0
30/03:00am 5.8 3.4 5.2 96 0.3 WSW 7 9 4 5 1028.8 1028.9 0.0
30/02:30am 6.0 3.6 5.4 96 0.3 WSW 7 9 4 5 1028.9 1029.0 0.0
30/02:00am 5.9 3.5 5.2 95 0.3 WSW 7 7 4 4 1028.9 1029.0 0.0
30/01:30am 6.2 5.1 5.3 94 0.4 CALM 0 0 0 0 1029.1 1029.2 0.0
30/01:00am 6.9 6.0 6.0 94 0.4 CALM 0 0 0 0 1029.1 1029.2 0.0
30/12:30am 7.6 6.5 6.7 94 0.4 SSW 2 6 1 3 1029.4 1029.5 0.0
30/12:00am 7.8 5.9 6.9 94 0.4 SSW 6 7 3 4 1029.7 1029.7 0.0
 
Date/Time
EST
Temp
°C
App
Temp
°C
Dew
Point
Rel
Hum
%
Delta-T
°C
Wind Press
QNH
hPa
Press
MSL
hPa
Rain
since 9 am
mm
Dir
 
Spd
km/h
Gust
km/h
Spd
kts
Gust
kts
29/11:30pm 7.9 6.1 7.0 94 0.4 SW 6 7 3 4 1030.2 1030.2 0.0
29/11:00pm 8.0 7.3 7.1 94 0.4 CALM 0 0 0 0 1030.4 1030.4 0.0
29/10:30pm 8.6 8.1 7.8 95 0.4 CALM 0 0 0 0 1030.7 1030.7 0.0
29/10:00pm 7.7 5.6 6.6 93 0.5 SW 7 7 4 4 1030.8 1030.8 0.0
29/09:30pm 8.8 7.1 7.6 92 0.6 SSE 6 7 3 4 1030.7 1030.7 0.0
29/09:00pm 9.2 7.6 7.8 91 0.7 SSE 6 6 3 3 1030.8 1030.8 0.0
29/08:30pm 10.1 8.4 8.2 88 0.9 SE 7 9 4 5 1030.7 1030.7 0.0
29/08:00pm 10.6 8.9 8.5 87 1.0 SE 7 9 4 5 1030.9 1030.9 0.0
29/07:30pm 11.3 9.4 9.2 87 1.1 ESE 9 9 5 5 1030.9 1030.9 0.0
29/07:00pm 11.7 10.2 9.3 85 1.2 E 7 7 4 4 1030.8 1030.8 0.0
29/06:30pm 11.7 9.7 8.7 82 1.5 ESE 9 9 5 5 1030.7 1030.7 0.0
29/06:00pm 13.4 12.0 9.5 77 2.0 E 7 9 4 5 1030.6 1030.6 0.0
29/05:30pm 13.8 12.4 9.5 75 2.2 E 7 9 4 5 1030.4 1030.4 0.0
29/05:00pm 14.6 13.2 9.4 71 2.7 E 7 9 4 5 1030.1 1030.1 0.0
29/04:30pm 15.6 13.8 9.3 66 3.3 ESE 9 11 5 6 1030.1 1030.1 0.0
29/04:00pm 15.9 14.1 9.3 65 3.4 E 9 11 5 6 1029.9 1029.9 0.0
29/03:30pm 17.0 15.1 8.9 59 4.2 E 9 13 5 7 1029.9 1029.9 0.0
29/03:00pm 17.2 14.8 8.6 57 4.4 SE 11 13 6 7 1029.9 1029.9 0.0
29/02:30pm 18.0 16.0 8.8 55 4.8 E 9 15 5 8 1030.0 1030.0 0.0
29/02:00pm 17.5 15.6 8.9 57 4.4 E 9 13 5 7 1030.2 1030.2 0.0
29/01:30pm 17.7 16.1 8.8 56 4.6 NNE 7 15 4 8 1030.4 1030.4 0.0
29/01:00pm 17.5 16.1 8.9 57 4.4 ENE 6 11 3 6 1030.6 1030.6 0.0
29/12:30pm 17.2 15.6 8.6 57 4.4 N 7 11 4 6 1031.3 1031.3 0.0
29/12:00pm 17.4 16.1 9.1 58 4.3 WNW 6 9 3 5 1031.8 1031.8 0.0
29/11:30am 16.2 14.6 8.7 61 3.8 W 7 11 4 6 1032.5 1032.5 0.0
29/11:00am 15.2 13.7 9.3 68 3.0 W 7 13 4 7 1033.0 1033.0 0.0
29/10:30am 14.0 12.5 9.2 73 2.5 W 7 11 4 6 1033.5 1033.5 0.0
29/10:00am 12.2 10.7 9.2 82 1.5 W 7 9 4 5 1033.7 1033.7 0.0
29/09:30am 10.7 9.2 9.3 91 0.7 W 7 11 4 6 1033.5 1033.5 0.0
29/09:00am 9.3 7.7 8.7 96 0.3 WSW 7 9 4 5 1033.4 1033.4 0.0
29/08:30am 8.0 5.7 7.4 96 0.3 WSW 9 11 5 6 1033.3 1033.3 0.0
29/08:00am 7.3 4.8 6.7 96 0.3 WSW 9 13 5 7 1033.2 1033.2 0.0
29/07:30am 7.1 3.9 6.7 97 0.2 SW 13 19 7 10 1032.9 1032.9 0.0
29/07:00am 6.5 3.5 6.1 97 0.2 WSW 11 15 6 8 1032.9 1032.9 0.0
29/06:30am 6.4 3.7 5.8 96 0.3 WSW 9 11 5 6 1032.7 1032.7 0.0
29/06:00am 6.8 4.6 6.4 97 0.2 WSW 7 9 4 5 1032.6 1032.6 0.0
29/05:30am 6.6 5.7 6.0 96 0.3 CALM 0 0 0 0 1032.4 1032.4 0.0
29/05:00am 6.7 5.8 6.1 96 0.3 CALM 0 0 0 0 1032.4 1032.4 0.0
29/04:30am 6.6 5.7 6.2 97 0.2 CALM 0 0 0 0 1032.1 1032.1 0.0
29/04:00am 6.5 3.9 6.1 97 0.2 WSW 9 13 5 7 1032.0 1032.0 0.0
29/03:30am 6.3 4.0 5.7 96 0.3 SW 7 9 4 5 1032.1 1032.1 0.0
29/03:00am 6.0 4.2 5.3 95 0.3 SW 4 9 2 5 1032.1 1032.1 0.0
29/02:30am 6.5 4.2 5.9 96 0.3 WSW 7 9 4 5 1032.3 1032.3 0.0
29/02:00am 7.0 3.7 6.6 97 0.2 SW 13 15 7 8 1032.3 1032.3 0.0
29/01:30am 6.3 2.9 5.9 97 0.2 WSW 13 15 7 8 1032.3 1032.3 0.0
29/01:00am 6.2 3.2 5.8 97 0.2 SW 11 13 6 7 1032.5 1032.5 0.0
29/12:30am 6.0 3.3 5.4 96 0.3 WSW 9 13 5 7 1032.7 1032.7 0.0
29/12:00am 6.4 3.7 5.8 96 0.3 SW 9 13 5 7 1032.9 1032.9 0.0
 
Date/Time
EST
Temp
°C
App
Temp
°C
Dew
Point
Rel
Hum
%
Delta-T
°C
Wind Press
QNH
hPa
Press
MSL
hPa
Rain
since 9 am
mm
Dir
 
Spd
km/h
Gust
km/h
Spd
kts
Gust
kts
28/11:30pm 6.2 3.9 5.5 95 0.3 SW 7 9 4 5 1033.1 1033.1 0.0
28/11:00pm 6.5 4.2 5.8 95 0.3 SW 7 7 4 4 1033.0 1033.0 0.0
28/10:30pm 7.4 5.5 6.7 95 0.3 WSW 6 9 3 5 1032.9 1032.9 0.0
28/10:00pm 7.5 5.4 6.8 95 0.3 WSW 7 9 4 5 1032.9 1032.9 0.0
28/09:30pm 7.8 5.9 6.9 94 0.4 SSW 6 7 3 4 1033.0 1033.0 0.0
28/09:00pm 7.9 7.1 6.5 91 0.6 CALM 0 0 0 0 1032.9 1032.9 0.0
28/08:30pm 9.1 8.5 7.5 90 0.8 CALM 0 0 0 0 1032.8 1032.8 0.0
28/08:00pm 10.8 9.2 8.9 88 0.9 SSE 7 9 4 5 1032.5 1032.5 0.0
28/07:30pm 10.7 9.1 8.8 88 0.9 SSE 7 7 4 4 1032.4 1032.4 0.0
28/07:00pm 11.4 9.8 8.8 84 1.3 SSE 7 7 4 4 1032.2 1032.2 0.0
28/06:30pm 12.4 11.0 9.4 82 1.5 SSE 7 9 4 5 1031.9 1031.9 0.0
28/06:00pm 12.7 10.9 9.5 81 1.6 SSE 9 11 5 6 1031.5 1031.5 0.0
28/05:30pm 12.3 10.3 8.8 79 1.8 SSE 9 11 5 6 1031.2 1031.2 0.0
28/05:00pm 13.8 12.2 8.6 71 2.6 SE 7 9 4 5 1031.1 1031.1 0.0
28/04:30pm 15.7 14.1 8.7 63 3.6 E 7 9 4 5 1031.1 1031.1 0.0
28/04:00pm 16.8 15.2 8.0 56 4.4 NW 6 9 3 5 1031.1 1031.1 0.0
28/03:30pm 17.7 16.9 8.0 53 5.0 NNW 2 6 1 3 1031.0 1031.0 0.0
28/03:00pm 17.3 15.6 8.4 56 4.5 ENE 7 9 4 5 1031.0 1031.0 0.0
28/02:30pm 17.4 15.9 8.5 56 4.6 NNE 6 11 3 6 1031.1 1031.1 0.0
28/02:00pm 17.1 15.1 8.5 57 4.4 NNE 9 13 5 7 1030.9 1030.9 0.0
28/01:30pm 18.0 17.8 9.1 56 4.7 CALM 0 7 0 4 1031.0 1031.0 0.0
28/01:00pm 16.9 16.5 8.1 56 4.4 CALM 0 4 0 2 1031.2 1031.2 0.0
28/12:30pm 16.5 15.4 8.5 59 4.1 SW 4 9 2 5 1031.6 1031.6 0.0
28/12:00pm 15.6 13.9 7.6 59 4.0 NW 6 11 3 6 1032.0 1032.0 0.0
28/11:30am 14.3 11.9 7.1 62 3.5 W 9 11 5 6 1032.4 1032.4 0.0
28/11:00am 13.1 10.9 6.2 63 3.3 WNW 7 11 4 6 1032.9 1032.9 0.0
28/10:30am 11.9 9.3 6.2 68 2.7 WNW 9 13 5 7 1033.3 1033.3 0.0
28/10:00am 10.9 8.0 6.5 74 2.1 WSW 11 15 6 8 1033.3 1033.3 0.0
28/09:30am 9.7 6.3 5.9 77 1.8 WSW 13 19 7 10 1033.1 1033.1 0.0
28/09:00am 8.5 4.7 5.8 83 1.2 WSW 15 20 8 11 1032.8 1032.8 0.0
28/08:30am 7.1 4.0 5.6 90 0.7 WSW 11 15 6 8 1032.7 1032.7 0.0
28/08:00am 5.5 2.2 4.6 94 0.4 WSW 11 13 6 7 1032.5 1032.5 0.0
28/07:30am 4.4 0.9 3.7 95 0.3 WSW 11 13 6 7 1032.1 1032.1 0.0
28/07:00am 4.0 0.1 3.3 95 0.3 WSW 13 15 7 8 1031.7 1031.7 0.0
28/06:30am 3.9 0.3 2.9 93 0.4 WSW 11 11 6 6 1031.4 1031.4 0.0
28/06:00am 4.8 1.8 3.9 94 0.4 SW 9 13 5 7 1031.1 1031.1 0.0
28/05:30am 4.3 1.6 3.6 95 0.3 SW 7 11 4 6 1030.8 1030.8 0.0
28/05:00am 4.9 1.2 4.2 95 0.3 WSW 13 15 7 8 1030.6 1030.6 0.0
28/04:30am 5.2 1.9 4.5 95 0.3 SW 11 15 6 8 1030.4 1030.4 0.0
28/04:00am 5.0 1.3 4.4 96 0.3 WSW 13 15 7 8 1030.4 1030.4 0.0
28/03:30am 5.2 1.6 4.8 97 0.2 SW 13 15 7 8 1030.5 1030.5 0.0
28/03:00am 4.5 1.1 4.1 97 0.2 WSW 11 13 6 7 1030.6 1030.6 0.0
28/02:30am 4.2 1.5 3.6 96 0.2 SW 7 9 4 5 1030.5 1030.5 0.0
28/02:00am 4.7 2.1 4.1 96 0.3 WSW 7 9 4 5 1030.6 1030.6 0.0
28/01:30am 4.7 2.3 4.1 96 0.3 SW 6 7 3 4 1030.6 1030.6 0.0
28/01:00am 5.1 2.7 4.4 95 0.3 SW 6 7 3 4 1030.6 1030.6 0.0
28/12:30am 5.2 4.0 4.5 95 0.3 CALM 0 0 0 0 1030.7 1030.7 0.0
28/12:00am 5.4 3.8 4.5 94 0.4 SW 2 7 1 4 1030.7 1030.7 0.0
 
Date/Time
EST
Temp
°C
App
Temp
°C
Dew
Point
Rel
Hum
%
Delta-T
°C
Wind Press
QNH
hPa
Press
MSL
hPa
Rain
since 9 am
mm
Dir
 
Spd
km/h
Gust
km/h
Spd
kts
Gust
kts
27/11:30pm 6.3 5.3 5.6 95 0.3 CALM 0 0 0 0 1030.7 1030.7 0.0
27/11:00pm 6.8 5.1 5.9 94 0.4 SW 4 6 2 3 1030.8 1030.8 0.0
27/10:30pm 7.5 5.6 6.6 94 0.4 SSW 6 7 3 4 1030.9 1030.9 0.0
27/10:00pm 7.9 5.9 7.0 94 0.4 SSW 7 9 4 5 1031.0 1031.0 0.0
27/09:30pm 8.0 6.1 6.9 93 0.5 SSW 6 7 3 4 1031.1 1031.1 0.0
27/09:00pm 8.1 6.1 7.0 93 0.5 SSW 7 9 4 5 1031.1 1031.1 0.0
27/08:30pm 8.3 5.9 7.1 92 0.6 SW 9 9 5 5 1031.0 1031.0 0.0
27/08:00pm 8.7 6.4 7.5 92 0.6 SW 9 9 5 5 1030.9 1030.9 0.0
27/07:30pm 8.9 7.2 7.4 90 0.7 W 6 7 3 4 1030.7 1030.7 0.0
27/07:00pm 9.9 9.4 8.0 88 0.9 CALM 0 7 0 4 1030.5 1030.5 0.0
27/06:30pm 11.2 9.1 8.2 82 1.5 SSE 9 11 5 6 1030.3 1030.3 0.0
27/06:00pm 12.2 10.3 8.9 80 1.6 SSE 9 11 5 6 1030.1 1030.1 0.0
27/05:30pm 13.0 11.1 9.1 77 2.0 SSE 9 11 5 6 1029.9 1029.9 0.0
27/05:00pm 13.7 11.7 8.7 72 2.5 SE 9 13 5 7 1029.7 1029.7 0.0
27/04:30pm 16.3 15.4 7.8 57 4.3 N 2 6 1 3 1029.4 1029.5 0.0
27/04:00pm 17.8 15.9 6.7 48 5.5 N 6 7 3 4 1029.2 1029.3 0.0
27/03:30pm 18.1 16.1 6.3 46 5.8 N 6 7 3 4 1029.0 1029.1 0.0

Other Formats:

Comma delimited format used in spreadsheet applications
http://www.bom.gov.au/fwo/IDN60801/IDN60801.95761.axf

JavaScript Object Notation format (JSON) in row-major order
http://www.bom.gov.au/fwo/IDN60801/IDN60801.95761.json